sensor_id;sensor_type;location;lat;lon;timestamp;P1;durP1;ratioP1;P2;durP2;ratioP2
50319;SDS011;36226;53.464;9.852;2023-12-20T00:01:34;10.50;;;1.20;;
50319;SDS011;36226;53.464;9.852;2023-12-20T00:04:00;6.50;;;1.02;;
50319;SDS011;36226;53.464;9.852;2023-12-20T00:06:25;9.73;;;1.05;;
50319;SDS011;36226;53.464;9.852;2023-12-20T00:08:50;15.05;;;1.13;;
50319;SDS011;36226;53.464;9.852;2023-12-20T00:11:16;12.05;;;0.90;;
50319;SDS011;36226;53.464;9.852;2023-12-20T00:13:41;6.78;;;0.93;;
50319;SDS011;36226;53.464;9.852;2023-12-20T00:16:06;11.80;;;1.20;;
50319;SDS011;36226;53.464;9.852;2023-12-20T00:18:32;7.55;;;1.10;;
50319;SDS011;36226;53.464;9.852;2023-12-20T00:20:57;9.45;;;1.20;;
50319;SDS011;36226;53.464;9.852;2023-12-20T00:23:23;9.27;;;1.00;;
50319;SDS011;36226;53.464;9.852;2023-12-20T00:25:48;12.05;;;1.55;;
50319;SDS011;36226;53.464;9.852;2023-12-20T00:28:14;13.05;;;1.10;;
50319;SDS011;36226;53.464;9.852;2023-12-20T00:30:39;15.68;;;1.60;;
50319;SDS011;36226;53.464;9.852;2023-12-20T00:33:04;9.90;;;1.05;;
50319;SDS011;36226;53.464;9.852;2023-12-20T00:35:30;11.10;;;1.00;;
50319;SDS011;36226;53.464;9.852;2023-12-20T00:37:55;4.03;;;0.82;;
50319;SDS011;36226;53.464;9.852;2023-12-20T00:40:20;10.80;;;1.23;;
50319;SDS011;36226;53.464;9.852;2023-12-20T00:42:47;7.85;;;1.10;;
50319;SDS011;36226;53.464;9.852;2023-12-20T00:45:12;12.05;;;1.80;;
50319;SDS011;36226;53.464;9.852;2023-12-20T00:47:39;7.35;;;0.82;;
50319;SDS011;36226;53.464;9.852;2023-12-20T00:50:05;12.52;;;1.63;;
50319;SDS011;36226;53.464;9.852;2023-12-20T00:52:30;12.32;;;2.58;;
50319;SDS011;36226;53.464;9.852;2023-12-20T00:54:56;9.80;;;0.98;;
50319;SDS011;36226;53.464;9.852;2023-12-20T00:57:21;9.40;;;0.93;;
50319;SDS011;36226;53.464;9.852;2023-12-20T00:59:46;7.32;;;0.90;;
50319;SDS011;36226;53.464;9.852;2023-12-20T01:02:12;9.30;;;1.00;;
50319;SDS011;36226;53.464;9.852;2023-12-20T01:04:37;11.80;;;1.27;;
50319;SDS011;36226;53.464;9.852;2023-12-20T01:07:03;5.13;;;0.75;;
50319;SDS011;36226;53.464;9.852;2023-12-20T01:09:28;8.40;;;0.95;;
50319;SDS011;36226;53.464;9.852;2023-12-20T01:11:53;15.00;;;1.35;;
50319;SDS011;36226;53.464;9.852;2023-12-20T01:14:19;8.55;;;1.25;;
50319;SDS011;36226;53.464;9.852;2023-12-20T01:16:44;11.40;;;1.08;;
50319;SDS011;36226;53.464;9.852;2023-12-20T01:19:09;14.75;;;1.38;;
50319;SDS011;36226;53.464;9.852;2023-12-20T01:21:35;10.10;;;1.00;;
50319;SDS011;36226;53.464;9.852;2023-12-20T01:24:00;8.05;;;1.13;;
50319;SDS011;36226;53.464;9.852;2023-12-20T01:26:26;10.95;;;1.10;;
50319;SDS011;36226;53.464;9.852;2023-12-20T01:28:51;9.02;;;1.00;;
50319;SDS011;36226;53.464;9.852;2023-12-20T01:31:16;14.60;;;1.77;;
50319;SDS011;36226;53.464;9.852;2023-12-20T01:33:42;11.80;;;1.23;;
50319;SDS011;36226;53.464;9.852;2023-12-20T01:36:07;10.45;;;1.27;;
50319;SDS011;36226;53.464;9.852;2023-12-20T01:38:32;8.90;;;1.25;;
50319;SDS011;36226;53.464;9.852;2023-12-20T01:40:58;10.00;;;1.00;;
50319;SDS011;36226;53.464;9.852;2023-12-20T01:43:24;9.15;;;1.23;;
50319;SDS011;36226;53.464;9.852;2023-12-20T01:45:49;12.73;;;1.42;;
50319;SDS011;36226;53.464;9.852;2023-12-20T01:48:15;9.52;;;1.23;;
50319;SDS011;36226;53.464;9.852;2023-12-20T01:50:41;12.98;;;1.48;;
50319;SDS011;36226;53.464;9.852;2023-12-20T01:53:08;18.67;;;1.48;;
50319;SDS011;36226;53.464;9.852;2023-12-20T01:55:35;9.77;;;0.98;;
50319;SDS011;36226;53.464;9.852;2023-12-20T01:58:01;8.60;;;1.45;;
50319;SDS011;36226;53.464;9.852;2023-12-20T02:00:27;9.23;;;1.40;;
50319;SDS011;36226;53.464;9.852;2023-12-20T02:02:53;7.15;;;1.10;;
50319;SDS011;36226;53.464;9.852;2023-12-20T02:05:20;11.50;;;1.25;;
50319;SDS011;36226;53.464;9.852;2023-12-20T02:07:46;14.65;;;2.25;;
50319;SDS011;36226;53.464;9.852;2023-12-20T02:10:11;8.85;;;1.02;;
50319;SDS011;36226;53.464;9.852;2023-12-20T02:12:37;7.93;;;0.90;;
50319;SDS011;36226;53.464;9.852;2023-12-20T02:15:03;8.45;;;1.17;;
50319;SDS011;36226;53.464;9.852;2023-12-20T02:17:29;4.00;;;1.05;;
50319;SDS011;36226;53.464;9.852;2023-12-20T02:19:55;6.70;;;1.10;;
50319;SDS011;36226;53.464;9.852;2023-12-20T02:22:20;9.73;;;1.20;;
50319;SDS011;36226;53.464;9.852;2023-12-20T02:24:45;6.93;;;1.30;;
50319;SDS011;36226;53.464;9.852;2023-12-20T02:27:11;7.80;;;1.50;;
50319;SDS011;36226;53.464;9.852;2023-12-20T02:29:37;12.95;;;1.30;;
50319;SDS011;36226;53.464;9.852;2023-12-20T02:32:02;9.48;;;1.20;;
50319;SDS011;36226;53.464;9.852;2023-12-20T02:34:28;13.70;;;1.40;;
50319;SDS011;36226;53.464;9.852;2023-12-20T02:36:53;13.13;;;2.13;;
50319;SDS011;36226;53.464;9.852;2023-12-20T02:39:18;6.82;;;1.30;;
50319;SDS011;36226;53.464;9.852;2023-12-20T02:41:44;8.98;;;1.02;;
50319;SDS011;36226;53.464;9.852;2023-12-20T02:44:09;12.15;;;1.58;;
50319;SDS011;36226;53.464;9.852;2023-12-20T02:46:35;10.38;;;2.05;;
50319;SDS011;36226;53.464;9.852;2023-12-20T02:49:00;11.40;;;1.45;;
50319;SDS011;36226;53.464;9.852;2023-12-20T02:51:25;6.88;;;1.55;;
50319;SDS011;36226;53.464;9.852;2023-12-20T02:53:51;9.02;;;1.42;;
50319;SDS011;36226;53.464;9.852;2023-12-20T02:56:16;6.70;;;2.05;;
50319;SDS011;36226;53.464;9.852;2023-12-20T02:58:41;11.85;;;1.98;;
50319;SDS011;36226;53.464;9.852;2023-12-20T03:01:07;7.32;;;1.23;;
50319;SDS011;36226;53.464;9.852;2023-12-20T03:03:32;9.25;;;1.55;;
50319;SDS011;36226;53.464;9.852;2023-12-20T03:05:57;9.23;;;1.65;;
50319;SDS011;36226;53.464;9.852;2023-12-20T03:08:23;11.45;;;1.60;;
50319;SDS011;36226;53.464;9.852;2023-12-20T03:10:48;14.73;;;2.10;;
50319;SDS011;36226;53.464;9.852;2023-12-20T03:13:14;8.77;;;1.27;;
50319;SDS011;36226;53.464;9.852;2023-12-20T03:15:39;10.90;;;1.70;;
50319;SDS011;36226;53.464;9.852;2023-12-20T03:18:05;10.98;;;1.33;;
50319;SDS011;36226;53.464;9.852;2023-12-20T03:20:30;8.10;;;1.35;;
50319;SDS011;36226;53.464;9.852;2023-12-20T03:22:59;9.90;;;1.38;;
50319;SDS011;36226;53.464;9.852;2023-12-20T03:25:24;6.72;;;1.20;;
50319;SDS011;36226;53.464;9.852;2023-12-20T03:27:50;10.10;;;1.60;;
50319;SDS011;36226;53.464;9.852;2023-12-20T03:30:15;8.07;;;1.65;;
50319;SDS011;36226;53.464;9.852;2023-12-20T03:32:40;12.98;;;2.08;;
50319;SDS011;36226;53.464;9.852;2023-12-20T03:35:06;14.63;;;1.65;;
50319;SDS011;36226;53.464;9.852;2023-12-20T03:37:31;6.70;;;1.70;;
50319;SDS011;36226;53.464;9.852;2023-12-20T03:39:56;8.40;;;1.08;;
50319;SDS011;36226;53.464;9.852;2023-12-20T03:42:22;9.18;;;1.55;;
50319;SDS011;36226;53.464;9.852;2023-12-20T03:44:47;6.25;;;0.90;;
50319;SDS011;36226;53.464;9.852;2023-12-20T03:47:12;7.85;;;1.38;;
50319;SDS011;36226;53.464;9.852;2023-12-20T03:49:38;13.20;;;1.30;;
50319;SDS011;36226;53.464;9.852;2023-12-20T03:52:04;5.20;;;1.17;;
50319;SDS011;36226;53.464;9.852;2023-12-20T03:54:29;11.50;;;1.33;;
50319;SDS011;36226;53.464;9.852;2023-12-20T03:56:55;8.80;;;1.20;;
50319;SDS011;36226;53.464;9.852;2023-12-20T03:59:20;9.82;;;1.48;;
50319;SDS011;36226;53.464;9.852;2023-12-20T04:01:45;13.30;;;1.55;;
50319;SDS011;36226;53.464;9.852;2023-12-20T04:04:11;5.53;;;1.17;;
50319;SDS011;36226;53.464;9.852;2023-12-20T04:06:37;5.20;;;1.38;;
50319;SDS011;36226;53.464;9.852;2023-12-20T04:09:03;7.13;;;1.00;;
50319;SDS011;36226;53.464;9.852;2023-12-20T04:11:28;12.02;;;2.45;;
50319;SDS011;36226;53.464;9.852;2023-12-20T04:13:53;14.57;;;2.00;;
50319;SDS011;36226;53.464;9.852;2023-12-20T04:16:19;9.95;;;1.55;;
50319;SDS011;36226;53.464;9.852;2023-12-20T04:18:44;12.52;;;1.92;;
50319;SDS011;36226;53.464;9.852;2023-12-20T04:21:10;6.85;;;1.45;;
50319;SDS011;36226;53.464;9.852;2023-12-20T04:23:35;9.02;;;1.52;;
50319;SDS011;36226;53.464;9.852;2023-12-20T04:26:00;9.82;;;2.53;;
50319;SDS011;36226;53.464;9.852;2023-12-20T04:28:26;12.32;;;1.95;;
50319;SDS011;36226;53.464;9.852;2023-12-20T04:30:51;10.38;;;1.88;;
50319;SDS011;36226;53.464;9.852;2023-12-20T04:33:16;8.20;;;1.73;;
50319;SDS011;36226;53.464;9.852;2023-12-20T04:35:42;9.80;;;1.85;;
50319;SDS011;36226;53.464;9.852;2023-12-20T04:38:08;13.23;;;1.70;;
50319;SDS011;36226;53.464;9.852;2023-12-20T04:40:34;40.55;;;2.72;;
50319;SDS011;36226;53.464;9.852;2023-12-20T04:42:59;13.32;;;2.45;;
50319;SDS011;36226;53.464;9.852;2023-12-20T04:45:24;7.72;;;1.60;;
50319;SDS011;36226;53.464;9.852;2023-12-20T04:47:51;8.27;;;1.80;;
50319;SDS011;36226;53.464;9.852;2023-12-20T04:50:16;8.32;;;1.70;;
50319;SDS011;36226;53.464;9.852;2023-12-20T04:52:46;7.80;;;1.73;;
50319;SDS011;36226;53.464;9.852;2023-12-20T04:55:14;12.18;;;2.22;;
50319;SDS011;36226;53.464;9.852;2023-12-20T04:57:40;10.18;;;1.88;;
50319;SDS011;36226;53.464;9.852;2023-12-20T05:00:05;13.80;;;2.60;;
50319;SDS011;36226;53.464;9.852;2023-12-20T05:02:35;11.32;;;2.28;;
50319;SDS011;36226;53.464;9.852;2023-12-20T05:05:01;6.80;;;1.92;;
50319;SDS011;36226;53.464;9.852;2023-12-20T05:07:27;7.15;;;2.50;;
50319;SDS011;36226;53.464;9.852;2023-12-20T05:09:52;9.05;;;2.20;;
50319;SDS011;36226;53.464;9.852;2023-12-20T05:12:18;11.50;;;1.92;;
50319;SDS011;36226;53.464;9.852;2023-12-20T05:14:43;14.95;;;2.25;;
50319;SDS011;36226;53.464;9.852;2023-12-20T05:17:09;11.55;;;2.20;;
50319;SDS011;36226;53.464;9.852;2023-12-20T05:19:34;10.10;;;2.13;;
50319;SDS011;36226;53.464;9.852;2023-12-20T05:22:00;10.32;;;1.70;;
50319;SDS011;36226;53.464;9.852;2023-12-20T05:24:27;12.65;;;2.03;;
50319;SDS011;36226;53.464;9.852;2023-12-20T05:26:52;15.82;;;2.20;;
50319;SDS011;36226;53.464;9.852;2023-12-20T05:29:17;13.32;;;3.33;;
50319;SDS011;36226;53.464;9.852;2023-12-20T05:31:43;17.48;;;2.25;;
50319;SDS011;36226;53.464;9.852;2023-12-20T05:34:08;14.77;;;2.38;;
50319;SDS011;36226;53.464;9.852;2023-12-20T05:36:33;10.43;;;1.63;;
50319;SDS011;36226;53.464;9.852;2023-12-20T05:38:59;12.75;;;2.45;;
50319;SDS011;36226;53.464;9.852;2023-12-20T05:41:24;14.80;;;2.10;;
50319;SDS011;36226;53.464;9.852;2023-12-20T05:43:49;12.02;;;3.08;;
50319;SDS011;36226;53.464;9.852;2023-12-20T05:46:15;14.40;;;2.08;;
50319;SDS011;36226;53.464;9.852;2023-12-20T05:48:41;12.23;;;2.13;;
50319;SDS011;36226;53.464;9.852;2023-12-20T05:51:06;9.38;;;1.67;;
50319;SDS011;36226;53.464;9.852;2023-12-20T05:53:31;19.02;;;2.25;;
50319;SDS011;36226;53.464;9.852;2023-12-20T05:55:57;7.50;;;1.85;;
50319;SDS011;36226;53.464;9.852;2023-12-20T05:58:22;10.65;;;2.25;;
50319;SDS011;36226;53.464;9.852;2023-12-20T06:00:47;7.43;;;1.92;;
50319;SDS011;36226;53.464;9.852;2023-12-20T06:03:13;12.98;;;1.98;;
50319;SDS011;36226;53.464;9.852;2023-12-20T06:05:39;12.57;;;1.92;;
50319;SDS011;36226;53.464;9.852;2023-12-20T06:08:04;10.55;;;1.60;;
50319;SDS011;36226;53.464;9.852;2023-12-20T06:10:30;11.02;;;1.70;;
50319;SDS011;36226;53.464;9.852;2023-12-20T06:12:55;10.95;;;2.63;;
50319;SDS011;36226;53.464;9.852;2023-12-20T06:15:21;12.27;;;2.28;;
50319;SDS011;36226;53.464;9.852;2023-12-20T06:17:46;7.75;;;1.63;;
50319;SDS011;36226;53.464;9.852;2023-12-20T06:20:12;12.10;;;1.92;;
50319;SDS011;36226;53.464;9.852;2023-12-20T06:22:38;12.27;;;2.45;;
50319;SDS011;36226;53.464;9.852;2023-12-20T06:25:03;11.63;;;1.80;;
50319;SDS011;36226;53.464;9.852;2023-12-20T06:27:29;13.85;;;2.10;;
50319;SDS011;36226;53.464;9.852;2023-12-20T06:29:55;6.18;;;1.35;;
50319;SDS011;36226;53.464;9.852;2023-12-20T06:32:20;8.50;;;1.30;;
50319;SDS011;36226;53.464;9.852;2023-12-20T06:34:48;8.57;;;1.55;;
50319;SDS011;36226;53.464;9.852;2023-12-20T06:37:13;12.57;;;1.85;;
50319;SDS011;36226;53.464;9.852;2023-12-20T06:39:40;11.93;;;1.77;;
50319;SDS011;36226;53.464;9.852;2023-12-20T06:42:05;15.05;;;2.00;;
50319;SDS011;36226;53.464;9.852;2023-12-20T06:44:31;9.45;;;1.60;;
50319;SDS011;36226;53.464;9.852;2023-12-20T06:46:56;13.00;;;1.70;;
50319;SDS011;36226;53.464;9.852;2023-12-20T06:49:22;14.50;;;1.85;;
50319;SDS011;36226;53.464;9.852;2023-12-20T06:51:47;9.95;;;1.85;;
50319;SDS011;36226;53.464;9.852;2023-12-20T06:54:12;18.70;;;1.88;;
50319;SDS011;36226;53.464;9.852;2023-12-20T06:56:38;7.78;;;1.55;;
50319;SDS011;36226;53.464;9.852;2023-12-20T06:59:03;10.10;;;2.03;;
50319;SDS011;36226;53.464;9.852;2023-12-20T07:01:28;9.20;;;1.85;;
50319;SDS011;36226;53.464;9.852;2023-12-20T07:03:54;11.80;;;2.10;;
50319;SDS011;36226;53.464;9.852;2023-12-20T07:06:19;12.50;;;1.88;;
50319;SDS011;36226;53.464;9.852;2023-12-20T07:08:45;10.68;;;1.90;;
50319;SDS011;36226;53.464;9.852;2023-12-20T07:11:10;12.18;;;2.05;;
50319;SDS011;36226;53.464;9.852;2023-12-20T07:13:36;20.85;;;2.03;;
50319;SDS011;36226;53.464;9.852;2023-12-20T07:16:01;16.42;;;2.40;;
50319;SDS011;36226;53.464;9.852;2023-12-20T07:18:26;10.77;;;2.15;;
50319;SDS011;36226;53.464;9.852;2023-12-20T07:20:52;19.80;;;2.20;;
50319;SDS011;36226;53.464;9.852;2023-12-20T07:23:19;14.45;;;2.35;;
50319;SDS011;36226;53.464;9.852;2023-12-20T07:25:45;10.00;;;2.08;;
50319;SDS011;36226;53.464;9.852;2023-12-20T07:28:10;16.27;;;2.50;;
50319;SDS011;36226;53.464;9.852;2023-12-20T07:30:36;13.18;;;2.70;;
50319;SDS011;36226;53.464;9.852;2023-12-20T07:33:01;22.02;;;2.42;;
50319;SDS011;36226;53.464;9.852;2023-12-20T07:35:27;9.85;;;1.55;;
50319;SDS011;36226;53.464;9.852;2023-12-20T07:37:52;18.27;;;1.98;;
50319;SDS011;36226;53.464;9.852;2023-12-20T07:40:18;17.15;;;2.50;;
50319;SDS011;36226;53.464;9.852;2023-12-20T07:42:43;11.27;;;2.20;;
50319;SDS011;36226;53.464;9.852;2023-12-20T07:45:09;12.68;;;2.15;;
50319;SDS011;36226;53.464;9.852;2023-12-20T07:47:35;14.60;;;1.92;;
50319;SDS011;36226;53.464;9.852;2023-12-20T07:50:01;15.18;;;2.08;;
50319;SDS011;36226;53.464;9.852;2023-12-20T07:52:27;11.77;;;1.75;;
50319;SDS011;36226;53.464;9.852;2023-12-20T07:54:54;11.05;;;2.17;;
50319;SDS011;36226;53.464;9.852;2023-12-20T07:57:19;15.88;;;2.38;;
50319;SDS011;36226;53.464;9.852;2023-12-20T07:59:44;10.40;;;2.10;;
50319;SDS011;36226;53.464;9.852;2023-12-20T08:02:10;13.50;;;1.80;;
50319;SDS011;36226;53.464;9.852;2023-12-20T08:04:35;12.05;;;1.88;;
50319;SDS011;36226;53.464;9.852;2023-12-20T08:07:00;17.33;;;2.30;;
50319;SDS011;36226;53.464;9.852;2023-12-20T08:09:26;15.45;;;2.33;;
50319;SDS011;36226;53.464;9.852;2023-12-20T08:11:51;14.27;;;2.20;;
50319;SDS011;36226;53.464;9.852;2023-12-20T08:14:16;17.73;;;2.00;;
50319;SDS011;36226;53.464;9.852;2023-12-20T08:16:42;11.88;;;2.38;;
50319;SDS011;36226;53.464;9.852;2023-12-20T08:19:07;14.27;;;2.22;;
50319;SDS011;36226;53.464;9.852;2023-12-20T08:21:33;12.40;;;2.35;;
50319;SDS011;36226;53.464;9.852;2023-12-20T08:23:58;13.05;;;1.80;;
50319;SDS011;36226;53.464;9.852;2023-12-20T08:26:25;12.90;;;2.00;;
50319;SDS011;36226;53.464;9.852;2023-12-20T08:28:51;14.10;;;2.20;;
50319;SDS011;36226;53.464;9.852;2023-12-20T08:31:16;11.77;;;1.98;;
50319;SDS011;36226;53.464;9.852;2023-12-20T08:33:46;9.93;;;1.90;;
50319;SDS011;36226;53.464;9.852;2023-12-20T08:36:12;12.70;;;2.00;;
50319;SDS011;36226;53.464;9.852;2023-12-20T08:38:38;10.65;;;1.67;;
50319;SDS011;36226;53.464;9.852;2023-12-20T08:41:03;16.25;;;2.53;;
50319;SDS011;36226;53.464;9.852;2023-12-20T08:43:33;15.25;;;2.30;;
50319;SDS011;36226;53.464;9.852;2023-12-20T08:45:59;13.88;;;1.48;;
50319;SDS011;36226;53.464;9.852;2023-12-20T08:48:24;13.80;;;2.22;;
50319;SDS011;36226;53.464;9.852;2023-12-20T08:50:50;9.65;;;1.98;;
50319;SDS011;36226;53.464;9.852;2023-12-20T08:53:17;14.02;;;2.05;;
50319;SDS011;36226;53.464;9.852;2023-12-20T08:55:43;12.90;;;2.55;;
50319;SDS011;36226;53.464;9.852;2023-12-20T08:58:08;16.02;;;2.30;;
50319;SDS011;36226;53.464;9.852;2023-12-20T09:00:34;13.25;;;1.60;;
50319;SDS011;36226;53.464;9.852;2023-12-20T09:03:00;12.02;;;1.60;;
50319;SDS011;36226;53.464;9.852;2023-12-20T09:05:26;15.80;;;2.13;;
50319;SDS011;36226;53.464;9.852;2023-12-20T09:07:51;15.50;;;2.10;;
50319;SDS011;36226;53.464;9.852;2023-12-20T09:10:17;7.72;;;1.17;;
50319;SDS011;36226;53.464;9.852;2023-12-20T09:12:47;6.80;;;1.25;;
50319;SDS011;36226;53.464;9.852;2023-12-20T09:15:25;3.78;;;0.73;;
50319;SDS011;36226;53.464;9.852;2023-12-20T09:17:51;7.70;;;0.95;;
50319;SDS011;36226;53.464;9.852;2023-12-20T09:20:17;4.47;;;0.98;;
50319;SDS011;36226;53.464;9.852;2023-12-20T09:22:42;5.30;;;0.85;;
50319;SDS011;36226;53.464;9.852;2023-12-20T09:25:09;6.90;;;0.73;;
50319;SDS011;36226;53.464;9.852;2023-12-20T09:27:35;3.72;;;0.73;;
50319;SDS011;36226;53.464;9.852;2023-12-20T09:30:00;2.17;;;0.40;;
50319;SDS011;36226;53.464;9.852;2023-12-20T09:32:26;2.65;;;0.80;;
50319;SDS011;36226;53.464;9.852;2023-12-20T09:34:51;4.60;;;0.70;;
50319;SDS011;36226;53.464;9.852;2023-12-20T09:37:16;2.45;;;0.38;;
50319;SDS011;36226;53.464;9.852;2023-12-20T09:39:42;0.85;;;0.35;;
50319;SDS011;36226;53.464;9.852;2023-12-20T09:42:07;3.53;;;0.30;;
50319;SDS011;36226;53.464;9.852;2023-12-20T09:44:33;1.27;;;0.45;;
50319;SDS011;36226;53.464;9.852;2023-12-20T09:47:02;1.00;;;0.40;;
50319;SDS011;36226;53.464;9.852;2023-12-20T09:49:28;2.15;;;0.40;;
50319;SDS011;36226;53.464;9.852;2023-12-20T09:51:55;3.75;;;0.50;;
50319;SDS011;36226;53.464;9.852;2023-12-20T09:54:21;1.15;;;0.40;;
50319;SDS011;36226;53.464;9.852;2023-12-20T09:56:47;1.33;;;0.40;;
50319;SDS011;36226;53.464;9.852;2023-12-20T09:59:13;1.58;;;0.38;;
50319;SDS011;36226;53.464;9.852;2023-12-20T10:01:39;2.70;;;0.57;;
50319;SDS011;36226;53.464;9.852;2023-12-20T10:04:05;4.60;;;0.70;;
50319;SDS011;36226;53.464;9.852;2023-12-20T10:06:35;1.45;;;0.40;;
50319;SDS011;36226;53.464;9.852;2023-12-20T10:09:01;2.25;;;0.40;;
50319;SDS011;36226;53.464;9.852;2023-12-20T10:11:26;2.60;;;0.30;;
50319;SDS011;36226;53.464;9.852;2023-12-20T10:13:58;3.97;;;0.95;;
50319;SDS011;36226;53.464;9.852;2023-12-20T10:16:25;1.83;;;0.30;;
50319;SDS011;36226;53.464;9.852;2023-12-20T10:18:52;4.00;;;0.43;;
50319;SDS011;36226;53.464;9.852;2023-12-20T10:21:21;3.47;;;0.30;;
50319;SDS011;36226;53.464;9.852;2023-12-20T10:23:47;3.10;;;0.43;;
50319;SDS011;36226;53.464;9.852;2023-12-20T10:26:25;0.60;;;0.40;;
50319;SDS011;36226;53.464;9.852;2023-12-20T10:28:54;4.15;;;1.00;;
50319;SDS011;36226;53.464;9.852;2023-12-20T10:33:55;0.75;;;0.30;;
50319;SDS011;36226;53.464;9.852;2023-12-20T10:36:22;2.47;;;0.40;;
50319;SDS011;36226;53.464;9.852;2023-12-20T10:38:48;3.35;;;0.32;;
50319;SDS011;36226;53.464;9.852;2023-12-20T10:41:15;3.92;;;0.52;;
50319;SDS011;36226;53.464;9.852;2023-12-20T10:43:43;1.70;;;0.50;;
50319;SDS011;36226;53.464;9.852;2023-12-20T10:46:10;3.25;;;0.63;;
50319;SDS011;36226;53.464;9.852;2023-12-20T10:48:35;5.05;;;0.70;;
50319;SDS011;36226;53.464;9.852;2023-12-20T10:51:01;2.55;;;0.40;;
50319;SDS011;36226;53.464;9.852;2023-12-20T10:53:27;3.97;;;0.50;;
50319;SDS011;36226;53.464;9.852;2023-12-20T10:55:52;6.65;;;0.68;;
50319;SDS011;36226;53.464;9.852;2023-12-20T10:58:20;4.13;;;0.30;;
50319;SDS011;36226;53.464;9.852;2023-12-20T11:00:47;4.45;;;0.65;;
50319;SDS011;36226;53.464;9.852;2023-12-20T11:03:15;5.60;;;0.40;;
50319;SDS011;36226;53.464;9.852;2023-12-20T11:11:02;3.60;;;0.65;;
50319;SDS011;36226;53.464;9.852;2023-12-20T11:13:32;6.78;;;0.73;;
50319;SDS011;36226;53.464;9.852;2023-12-20T11:16:01;5.97;;;0.60;;
50319;SDS011;36226;53.464;9.852;2023-12-20T11:18:28;4.65;;;0.50;;
50319;SDS011;36226;53.464;9.852;2023-12-20T11:20:55;10.70;;;0.98;;
50319;SDS011;36226;53.464;9.852;2023-12-20T11:23:20;6.07;;;0.47;;
50319;SDS011;36226;53.464;9.852;2023-12-20T11:25:47;6.40;;;0.60;;
50319;SDS011;36226;53.464;9.852;2023-12-20T11:28:14;10.88;;;0.88;;
50319;SDS011;36226;53.464;9.852;2023-12-20T11:30:45;7.55;;;0.85;;
50319;SDS011;36226;53.464;9.852;2023-12-20T11:33:11;9.45;;;0.93;;
50319;SDS011;36226;53.464;9.852;2023-12-20T11:35:38;9.20;;;1.00;;
50319;SDS011;36226;53.464;9.852;2023-12-20T11:38:06;9.52;;;1.00;;
50319;SDS011;36226;53.464;9.852;2023-12-20T11:40:33;9.68;;;1.58;;
50319;SDS011;36226;53.464;9.852;2023-12-20T11:42:58;11.40;;;1.02;;
50319;SDS011;36226;53.464;9.852;2023-12-20T11:45:24;9.85;;;1.70;;
50319;SDS011;36226;53.464;9.852;2023-12-20T11:47:51;7.50;;;0.98;;
50319;SDS011;36226;53.464;9.852;2023-12-20T11:50:20;10.50;;;1.52;;
50319;SDS011;36226;53.464;9.852;2023-12-20T11:52:46;5.10;;;0.85;;
50319;SDS011;36226;53.464;9.852;2023-12-20T11:55:14;5.43;;;1.00;;
50319;SDS011;36226;53.464;9.852;2023-12-20T11:57:40;8.23;;;1.10;;
50319;SDS011;36226;53.464;9.852;2023-12-20T12:00:05;10.98;;;1.40;;
50319;SDS011;36226;53.464;9.852;2023-12-20T12:02:31;8.13;;;1.10;;
50319;SDS011;36226;53.464;9.852;2023-12-20T12:04:57;8.50;;;0.82;;
50319;SDS011;36226;53.464;9.852;2023-12-20T12:07:23;13.73;;;1.27;;
50319;SDS011;36226;53.464;9.852;2023-12-20T12:09:49;6.25;;;1.20;;
50319;SDS011;36226;53.464;9.852;2023-12-20T12:12:14;8.55;;;1.80;;
50319;SDS011;36226;53.464;9.852;2023-12-20T12:14:40;13.10;;;1.55;;
50319;SDS011;36226;53.464;9.852;2023-12-20T12:17:14;6.57;;;1.00;;
50319;SDS011;36226;53.464;9.852;2023-12-20T12:19:41;8.70;;;1.00;;
50319;SDS011;36226;53.464;9.852;2023-12-20T12:22:10;8.50;;;1.05;;
50319;SDS011;36226;53.464;9.852;2023-12-20T12:24:44;12.98;;;1.27;;
50319;SDS011;36226;53.464;9.852;2023-12-20T12:27:11;5.25;;;0.88;;
50319;SDS011;36226;53.464;9.852;2023-12-20T12:29:37;7.18;;;1.92;;
50319;SDS011;36226;53.464;9.852;2023-12-20T12:32:07;7.75;;;1.35;;
50319;SDS011;36226;53.464;9.852;2023-12-20T12:34:34;5.85;;;1.50;;
50319;SDS011;36226;53.464;9.852;2023-12-20T12:37:00;5.72;;;1.20;;
50319;SDS011;36226;53.464;9.852;2023-12-20T12:39:26;9.25;;;1.48;;
50319;SDS011;36226;53.464;9.852;2023-12-20T12:41:51;9.75;;;1.67;;
50319;SDS011;36226;53.464;9.852;2023-12-20T12:44:17;11.13;;;1.38;;
50319;SDS011;36226;53.464;9.852;2023-12-20T12:46:43;10.57;;;1.50;;
50319;SDS011;36226;53.464;9.852;2023-12-20T12:49:09;9.15;;;1.30;;
50319;SDS011;36226;53.464;9.852;2023-12-20T12:51:34;10.52;;;1.65;;
50319;SDS011;36226;53.464;9.852;2023-12-20T12:54:00;8.18;;;0.98;;
50319;SDS011;36226;53.464;9.852;2023-12-20T12:56:25;11.60;;;3.30;;
50319;SDS011;36226;53.464;9.852;2023-12-20T12:58:51;10.32;;;1.30;;
50319;SDS011;36226;53.464;9.852;2023-12-20T13:01:16;9.25;;;1.20;;
50319;SDS011;36226;53.464;9.852;2023-12-20T13:03:42;7.72;;;1.30;;
50319;SDS011;36226;53.464;9.852;2023-12-20T13:06:07;7.22;;;1.90;;
50319;SDS011;36226;53.464;9.852;2023-12-20T13:08:33;13.10;;;1.63;;
50319;SDS011;36226;53.464;9.852;2023-12-20T13:10:59;12.10;;;1.80;;
50319;SDS011;36226;53.464;9.852;2023-12-20T13:13:26;11.88;;;1.80;;
50319;SDS011;36226;53.464;9.852;2023-12-20T13:15:51;10.68;;;2.13;;
50319;SDS011;36226;53.464;9.852;2023-12-20T13:18:20;16.65;;;2.25;;
50319;SDS011;36226;53.464;9.852;2023-12-20T13:20:48;15.57;;;2.10;;
50319;SDS011;36226;53.464;9.852;2023-12-20T13:23:13;11.13;;;1.83;;
50319;SDS011;36226;53.464;9.852;2023-12-20T13:25:39;9.05;;;1.73;;
50319;SDS011;36226;53.464;9.852;2023-12-20T13:28:05;16.13;;;2.28;;
50319;SDS011;36226;53.464;9.852;2023-12-20T13:30:31;11.55;;;2.05;;
50319;SDS011;36226;53.464;9.852;2023-12-20T13:32:56;22.42;;;2.20;;
50319;SDS011;36226;53.464;9.852;2023-12-20T13:35:21;14.98;;;2.22;;
50319;SDS011;36226;53.464;9.852;2023-12-20T13:37:47;10.77;;;1.83;;
50319;SDS011;36226;53.464;9.852;2023-12-20T13:40:12;12.18;;;2.05;;
50319;SDS011;36226;53.464;9.852;2023-12-20T13:42:38;15.93;;;2.47;;
50319;SDS011;36226;53.464;9.852;2023-12-20T13:45:04;13.27;;;2.00;;
50319;SDS011;36226;53.464;9.852;2023-12-20T13:47:31;14.15;;;1.92;;
50319;SDS011;36226;53.464;9.852;2023-12-20T13:49:56;12.13;;;1.90;;
50319;SDS011;36226;53.464;9.852;2023-12-20T13:52:22;12.95;;;2.80;;
50319;SDS011;36226;53.464;9.852;2023-12-20T13:54:47;11.35;;;2.55;;
50319;SDS011;36226;53.464;9.852;2023-12-20T13:57:12;8.30;;;1.50;;
50319;SDS011;36226;53.464;9.852;2023-12-20T13:59:38;17.73;;;3.10;;
50319;SDS011;36226;53.464;9.852;2023-12-20T14:02:03;14.98;;;2.65;;
50319;SDS011;36226;53.464;9.852;2023-12-20T14:04:29;22.80;;;2.55;;
50319;SDS011;36226;53.464;9.852;2023-12-20T14:06:54;16.30;;;3.50;;
50319;SDS011;36226;53.464;9.852;2023-12-20T14:09:20;15.68;;;4.32;;
50319;SDS011;36226;53.464;9.852;2023-12-20T14:11:45;17.45;;;3.28;;
50319;SDS011;36226;53.464;9.852;2023-12-20T14:14:11;17.33;;;3.83;;
50319;SDS011;36226;53.464;9.852;2023-12-20T14:16:36;25.17;;;3.10;;
50319;SDS011;36226;53.464;9.852;2023-12-20T14:19:03;16.60;;;3.03;;
50319;SDS011;36226;53.464;9.852;2023-12-20T14:21:28;14.73;;;2.55;;
50319;SDS011;36226;53.464;9.852;2023-12-20T14:23:54;17.52;;;3.10;;
50319;SDS011;36226;53.464;9.852;2023-12-20T14:26:19;15.50;;;2.88;;
50319;SDS011;36226;53.464;9.852;2023-12-20T14:28:44;21.92;;;3.47;;
50319;SDS011;36226;53.464;9.852;2023-12-20T14:31:10;17.17;;;2.92;;
50319;SDS011;36226;53.464;9.852;2023-12-20T14:33:35;20.83;;;3.38;;
50319;SDS011;36226;53.464;9.852;2023-12-20T14:36:01;23.25;;;3.47;;
50319;SDS011;36226;53.464;9.852;2023-12-20T14:38:30;17.73;;;2.90;;
50319;SDS011;36226;53.464;9.852;2023-12-20T14:40:55;12.48;;;3.10;;